createdAt,value
2022-07-31T00:00:13.147Z,20.30
2022-07-31T00:01:15.862Z,20.29
2022-07-31T00:02:18.738Z,20.25
2022-07-31T00:03:21.487Z,20.24
2022-07-31T00:04:24.461Z,20.23
2022-07-31T00:05:27.081Z,20.22
2022-07-31T00:06:29.854Z,20.19
2022-07-31T00:07:32.626Z,20.19
2022-07-31T00:08:35.316Z,20.17
2022-07-31T00:09:53.479Z,20.16
2022-07-31T00:10:42.725Z,20.16
2022-07-31T00:11:45.592Z,20.15
2022-07-31T00:12:48.300Z,20.14
2022-07-31T00:13:57.673Z,20.13
2022-07-31T00:14:55.569Z,20.12
2022-07-31T00:15:58.286Z,20.11
2022-07-31T00:17:01.415Z,20.08
2022-07-31T00:18:04.494Z,20.07
2022-07-31T00:19:07.703Z,20.06
2022-07-31T00:20:13.528Z,20.05
2022-07-31T00:21:16.462Z,20.03
2022-07-31T00:22:19.152Z,20.02
2022-07-31T00:23:21.838Z,20.01
2022-07-31T00:24:24.735Z,20.01
2022-07-31T00:25:27.457Z,19.99
2022-07-31T00:26:30.639Z,19.99
2022-07-31T00:27:33.407Z,19.98
2022-07-31T00:28:36.772Z,19.99
2022-07-31T00:29:39.481Z,19.98
2022-07-31T00:30:42.262Z,19.97
2022-07-31T00:31:44.939Z,19.94
2022-07-31T00:32:48.908Z,19.95
2022-07-31T00:33:52.136Z,19.96
2022-07-31T00:34:54.818Z,19.95
2022-07-31T00:35:57.409Z,19.91
2022-07-31T00:38:27.294Z,20.00
2022-07-31T00:39:15.464Z,19.88
2022-07-31T00:40:19.173Z,19.86
2022-07-31T00:41:21.979Z,19.84
2022-07-31T00:42:25.095Z,19.84
2022-07-31T00:43:30.892Z,19.83
2022-07-31T00:44:32.361Z,19.80
2022-07-31T00:45:35.053Z,19.78
2022-07-31T00:46:40.607Z,19.77
2022-07-31T00:47:43.372Z,19.76
2022-07-31T00:48:46.206Z,19.74
2022-07-31T00:49:49.018Z,19.73
2022-07-31T00:50:52.033Z,19.71
2022-07-31T00:51:54.756Z,19.70
2022-07-31T00:52:57.533Z,19.69
2022-07-31T00:54:00.122Z,19.69
2022-07-31T00:55:03.043Z,19.68
2022-07-31T00:56:05.842Z,19.68
2022-07-31T00:57:08.556Z,19.67
2022-07-31T00:58:11.261Z,19.66
2022-07-31T00:59:13.850Z,19.65
2022-07-31T01:00:18.441Z,19.65
2022-07-31T01:01:21.611Z,19.64
2022-07-31T01:02:24.432Z,19.64
2022-07-31T01:03:27.224Z,19.63
2022-07-31T01:04:31.321Z,19.63
2022-07-31T01:05:34.248Z,19.62
2022-07-31T01:06:42.335Z,19.61
2022-07-31T01:07:41.744Z,19.60
2022-07-31T01:08:44.330Z,19.60
2022-07-31T01:09:46.918Z,19.58
2022-07-31T01:11:04.118Z,19.56
2022-07-31T01:12:13.161Z,19.55
2022-07-31T01:14:39.159Z,19.67
2022-07-31T01:15:41.888Z,19.55
2022-07-31T01:16:46.373Z,19.55
2022-07-31T01:17:49.084Z,19.55
2022-07-31T01:18:51.760Z,19.55
2022-07-31T01:19:54.456Z,19.54
2022-07-31T01:20:57.729Z,19.54
2022-07-31T01:22:38.130Z,19.53
2022-07-31T01:23:57.091Z,19.54
2022-07-31T01:25:29.646Z,19.53
2022-07-31T01:26:39.366Z,19.52
2022-07-31T01:27:58.121Z,19.52
2022-07-31T01:29:07.547Z,19.50
2022-07-31T01:30:10.882Z,19.50
2022-07-31T01:36:25.231Z,19.55
2022-07-31T01:38:45.661Z,19.52
2022-07-31T01:39:54.063Z,19.41
2022-07-31T01:40:58.269Z,19.38
2022-07-31T01:42:03.175Z,19.36
2022-07-31T01:43:08.543Z,19.35
2022-07-31T01:44:13.769Z,19.34
2022-07-31T01:45:15.849Z,19.32
2022-07-31T01:46:19.469Z,19.30
2022-07-31T01:47:22.357Z,19.29
2022-07-31T01:48:25.038Z,19.26
2022-07-31T01:49:27.762Z,19.23
2022-07-31T01:50:43.616Z,19.20
2022-07-31T01:52:47.909Z,19.28
2022-07-31T01:53:50.517Z,19.15
2022-07-31T01:54:53.690Z,19.12
2022-07-31T01:56:03.714Z,19.12
2022-07-31T01:57:02.658Z,19.09
2022-07-31T01:58:05.370Z,19.07
2022-07-31T01:59:19.983Z,19.07
2022-07-31T02:00:33.626Z,19.06
2022-07-31T02:01:18.977Z,19.04
2022-07-31T02:02:23.574Z,19.04
2022-07-31T02:03:44.102Z,19.01
2022-07-31T02:04:31.586Z,19.01
2022-07-31T02:05:34.507Z,19.00
2022-07-31T02:06:37.334Z,18.99
2022-07-31T02:07:40.518Z,18.98
2022-07-31T02:08:46.762Z,18.99
2022-07-31T02:09:58.704Z,18.96
2022-07-31T02:10:54.151Z,18.95
2022-07-31T02:11:56.933Z,18.96
2022-07-31T02:13:00.113Z,18.95
2022-07-31T02:14:02.906Z,18.94
2022-07-31T02:15:06.740Z,18.93
2022-07-31T02:16:12.368Z,18.92
2022-07-31T02:17:15.064Z,18.92
2022-07-31T02:18:19.958Z,18.90
2022-07-31T02:19:23.395Z,18.90
2022-07-31T02:21:37.325Z,18.98
2022-07-31T02:23:50.533Z,18.97
2022-07-31T02:24:53.158Z,18.86
2022-07-31T02:25:55.717Z,18.86
2022-07-31T02:26:59.415Z,18.87
2022-07-31T02:28:04.793Z,18.87
2022-07-31T02:29:07.931Z,18.89
2022-07-31T02:30:13.545Z,18.87
2022-07-31T02:31:16.553Z,18.87
2022-07-31T02:32:19.318Z,18.87
2022-07-31T02:33:23.992Z,18.88
2022-07-31T02:34:29.216Z,18.88
2022-07-31T02:35:31.241Z,18.87
2022-07-31T02:36:34.240Z,18.86
2022-07-31T02:37:37.195Z,18.87
2022-07-31T02:38:39.990Z,18.87
2022-07-31T02:40:57.715Z,19.01
2022-07-31T02:42:00.728Z,18.90
2022-07-31T02:43:04.097Z,18.90
2022-07-31T02:44:11.001Z,18.92
2022-07-31T02:45:13.605Z,18.90
2022-07-31T02:46:18.085Z,18.90
2022-07-31T02:47:20.672Z,18.90
2022-07-31T02:48:24.171Z,18.91
2022-07-31T02:49:26.927Z,18.92
2022-07-31T02:50:31.384Z,18.93
2022-07-31T02:51:42.869Z,18.94
2022-07-31T02:52:38.678Z,18.94
2022-07-31T02:53:41.345Z,18.95
2022-07-31T02:54:44.076Z,18.97
2022-07-31T02:55:46.790Z,18.99
2022-07-31T02:56:50.258Z,19.00
2022-07-31T02:57:52.939Z,19.02
2022-07-31T02:58:55.617Z,19.04
2022-07-31T02:59:58.223Z,19.06
2022-07-31T03:01:02.745Z,19.08
2022-07-31T03:02:06.296Z,19.11
2022-07-31T03:03:11.141Z,19.10
2022-07-31T03:04:13.835Z,19.13
2022-07-31T03:05:16.615Z,19.16
2022-07-31T03:06:20.222Z,19.18
2022-07-31T03:07:22.891Z,19.20
2022-07-31T03:09:43.251Z,19.37
2022-07-31T03:10:46.070Z,19.28
2022-07-31T03:11:48.639Z,19.31
2022-07-31T03:12:52.114Z,19.31
2022-07-31T03:13:55.416Z,19.34
2022-07-31T03:14:58.133Z,19.37
2022-07-31T03:17:11.997Z,19.55
2022-07-31T03:18:14.604Z,19.46
2022-07-31T03:19:17.720Z,19.50
2022-07-31T03:20:21.126Z,19.51
2022-07-31T03:21:24.110Z,19.54
2022-07-31T03:22:28.197Z,19.55
2022-07-31T03:23:30.879Z,19.59
2022-07-31T03:24:33.569Z,19.62
2022-07-31T03:25:36.334Z,19.65
2022-07-31T03:26:39.601Z,19.65
2022-07-31T03:27:42.274Z,19.68
2022-07-31T03:28:46.897Z,19.72
2022-07-31T03:29:49.559Z,19.75
2022-07-31T03:30:56.062Z,19.80
2022-07-31T03:31:57.534Z,19.81
2022-07-31T03:33:00.101Z,19.83
2022-07-31T03:34:02.776Z,19.86
2022-07-31T03:35:06.559Z,19.87
2022-07-31T03:36:09.590Z,19.89
2022-07-31T03:37:12.457Z,19.95
2022-07-31T03:38:40.688Z,19.97
2022-07-31T03:39:19.774Z,20.01
2022-07-31T03:40:24.421Z,20.02
2022-07-31T03:42:37.618Z,20.17
2022-07-31T03:43:44.007Z,20.11
2022-07-31T03:45:55.866Z,20.31
2022-07-31T03:46:58.966Z,20.20
2022-07-31T03:48:01.861Z,20.23
2022-07-31T03:49:04.802Z,20.28
2022-07-31T03:50:08.575Z,20.32
2022-07-31T03:51:11.162Z,20.36
2022-07-31T03:52:14.148Z,20.40
2022-07-31T03:53:17.453Z,20.46
2022-07-31T03:54:20.118Z,20.47
2022-07-31T03:55:23.198Z,20.50
2022-07-31T03:56:26.174Z,20.54
2022-07-31T03:57:31.150Z,20.58
2022-07-31T03:58:33.290Z,20.61
2022-07-31T03:59:38.580Z,20.64
2022-07-31T04:00:41.045Z,20.68
2022-07-31T04:01:57.704Z,20.70
2022-07-31T04:02:50.431Z,20.70
2022-07-31T04:05:10.179Z,20.81
2022-07-31T04:06:13.886Z,20.71
2022-07-31T04:07:16.572Z,20.71
2022-07-31T04:08:19.166Z,20.71
2022-07-31T04:09:21.859Z,20.71
2022-07-31T04:10:25.563Z,20.72
2022-07-31T04:11:28.242Z,20.71
2022-07-31T04:12:30.941Z,20.73
2022-07-31T04:13:33.510Z,20.75
2022-07-31T04:14:36.197Z,20.78
2022-07-31T04:15:38.860Z,20.81
2022-07-31T04:16:41.648Z,20.83
2022-07-31T04:17:44.410Z,20.83
2022-07-31T04:18:50.842Z,20.88
2022-07-31T04:19:51.702Z,20.91
2022-07-31T04:20:54.478Z,20.92
2022-07-31T04:21:58.035Z,20.95
2022-07-31T04:23:00.841Z,21.01
2022-07-31T04:24:04.416Z,21.08
2022-07-31T04:25:08.472Z,21.13
2022-07-31T04:26:12.693Z,21.17
2022-07-31T04:27:17.549Z,21.23
2022-07-31T04:28:20.244Z,21.27
2022-07-31T04:29:23.551Z,21.30
2022-07-31T04:30:28.492Z,21.32
2022-07-31T04:31:31.280Z,21.34
2022-07-31T04:32:36.789Z,21.37
2022-07-31T04:33:46.529Z,21.39
2022-07-31T04:34:44.022Z,21.41
2022-07-31T04:35:46.727Z,21.43
2022-07-31T04:36:49.503Z,21.41
2022-07-31T04:37:52.373Z,21.43
2022-07-31T04:38:54.942Z,21.46
2022-07-31T04:39:57.617Z,21.46
2022-07-31T04:41:00.520Z,21.42
2022-07-31T04:42:04.183Z,21.39
2022-07-31T04:43:07.258Z,21.38
2022-07-31T04:44:10.262Z,21.37
2022-07-31T04:45:12.842Z,21.37
2022-07-31T04:46:17.774Z,21.38
2022-07-31T04:47:20.791Z,21.38
2022-07-31T04:48:23.462Z,21.37
2022-07-31T04:49:26.173Z,21.36
2022-07-31T04:50:29.550Z,21.36
2022-07-31T04:51:32.267Z,21.33
2022-07-31T04:52:35.056Z,21.33
2022-07-31T04:53:38.390Z,21.32
2022-07-31T04:54:41.457Z,21.36
2022-07-31T04:55:44.135Z,21.40
2022-07-31T04:56:47.345Z,21.43
2022-07-31T04:57:50.063Z,21.45
2022-07-31T04:58:52.673Z,21.46
2022-07-31T04:59:59.241Z,21.45
2022-07-31T05:01:01.560Z,21.46
2022-07-31T05:02:04.522Z,21.48
2022-07-31T05:03:07.599Z,21.53
2022-07-31T05:04:10.422Z,21.60
2022-07-31T05:05:13.101Z,21.67
2022-07-31T05:06:16.292Z,21.75
2022-07-31T05:07:18.970Z,21.81
2022-07-31T05:08:21.658Z,21.85
2022-07-31T05:09:25.290Z,21.89
2022-07-31T05:10:30.411Z,21.93
2022-07-31T05:11:33.678Z,21.97
2022-07-31T05:12:36.356Z,22.07
2022-07-31T05:13:39.051Z,22.13
2022-07-31T05:14:41.763Z,22.20
2022-07-31T05:15:44.448Z,22.28
2022-07-31T05:16:47.405Z,22.33
2022-07-31T05:17:50.080Z,22.43
2022-07-31T05:18:52.760Z,22.50
2022-07-31T05:19:55.421Z,22.58
2022-07-31T05:20:58.208Z,22.65
2022-07-31T05:22:02.538Z,22.68
2022-07-31T05:23:06.733Z,22.71
2022-07-31T05:24:09.694Z,22.76
2022-07-31T05:25:12.279Z,22.80
2022-07-31T05:26:16.469Z,22.85
2022-07-31T05:27:19.171Z,22.89
2022-07-31T05:28:27.135Z,22.90
2022-07-31T05:29:26.497Z,22.89
2022-07-31T05:30:30.795Z,22.92
2022-07-31T05:31:33.752Z,22.96
2022-07-31T05:32:36.423Z,22.98
2022-07-31T05:33:39.193Z,23.03
2022-07-31T05:34:41.782Z,23.07
2022-07-31T05:35:44.593Z,23.11
2022-07-31T05:37:58.399Z,23.32
2022-07-31T05:39:01.109Z,23.24
2022-07-31T05:40:05.305Z,23.30
2022-07-31T05:41:08.314Z,23.34
2022-07-31T05:42:11.005Z,23.35
2022-07-31T05:43:13.802Z,23.37
2022-07-31T05:44:16.434Z,23.39
2022-07-31T05:45:19.246Z,23.45
2022-07-31T05:46:23.127Z,23.46
2022-07-31T05:47:25.925Z,23.51
2022-07-31T05:48:30.645Z,23.55
2022-07-31T05:49:33.484Z,23.57
2022-07-31T05:50:36.423Z,23.58
2022-07-31T05:51:44.119Z,23.62
2022-07-31T05:52:47.163Z,23.62
2022-07-31T05:53:49.860Z,23.65
2022-07-31T05:55:37.547Z,23.81
2022-07-31T05:56:40.461Z,23.70
2022-07-31T05:57:43.149Z,23.71
2022-07-31T05:58:48.336Z,23.74
2022-07-31T05:59:50.352Z,23.77
2022-07-31T06:00:53.424Z,23.79
2022-07-31T06:01:56.201Z,23.83
2022-07-31T06:02:59.087Z,23.88
2022-07-31T06:04:01.775Z,23.89
2022-07-31T06:05:05.198Z,23.92
2022-07-31T06:06:08.202Z,23.97
2022-07-31T06:07:10.887Z,24.02
2022-07-31T06:08:14.795Z,24.04
2022-07-31T06:09:17.393Z,24.07
2022-07-31T06:10:21.989Z,24.10
2022-07-31T06:11:24.558Z,24.13
2022-07-31T06:12:27.233Z,24.15
2022-07-31T06:13:29.970Z,24.21
2022-07-31T06:14:32.754Z,24.23
2022-07-31T06:15:36.705Z,24.23
2022-07-31T06:16:39.978Z,24.27
2022-07-31T06:17:43.846Z,24.31
2022-07-31T06:18:47.266Z,24.33
2022-07-31T06:19:49.835Z,24.33
2022-07-31T06:20:52.703Z,24.34
2022-07-31T06:21:55.492Z,24.36
2022-07-31T06:22:58.682Z,24.36
2022-07-31T06:24:02.284Z,24.39
2022-07-31T06:25:06.605Z,24.39
2022-07-31T06:26:09.915Z,24.40
2022-07-31T06:27:29.676Z,24.42
2022-07-31T06:28:17.204Z,24.42
2022-07-31T06:29:20.274Z,24.43
2022-07-31T06:30:25.473Z,24.44
2022-07-31T06:31:28.165Z,24.43
2022-07-31T06:32:31.733Z,24.46
2022-07-31T06:33:37.806Z,24.46
2022-07-31T06:34:39.138Z,24.45
2022-07-31T06:35:41.918Z,24.45
2022-07-31T06:36:44.814Z,24.47
2022-07-31T06:37:47.412Z,24.55
2022-07-31T06:38:50.067Z,24.57
2022-07-31T06:39:55.972Z,24.62
2022-07-31T06:40:57.982Z,24.63
2022-07-31T06:42:01.116Z,24.67
2022-07-31T06:43:06.889Z,24.72
2022-07-31T06:44:09.786Z,24.77
2022-07-31T06:45:18.396Z,24.77
2022-07-31T06:46:19.161Z,24.80
2022-07-31T06:47:23.562Z,24.83
2022-07-31T06:48:26.380Z,24.89
2022-07-31T06:49:31.267Z,24.93
2022-07-31T06:50:35.352Z,24.98
2022-07-31T06:51:38.238Z,25.04
2022-07-31T06:52:40.837Z,25.08
2022-07-31T06:53:43.540Z,25.06
2022-07-31T06:54:46.439Z,25.06
2022-07-31T06:55:49.021Z,25.09
2022-07-31T06:56:51.839Z,25.10
2022-07-31T06:57:54.944Z,25.10
2022-07-31T06:58:57.916Z,25.10
2022-07-31T07:00:03.229Z,25.11
2022-07-31T07:02:15.945Z,25.24
2022-07-31T07:03:18.669Z,25.11
2022-07-31T07:04:21.336Z,25.13
2022-07-31T07:05:25.943Z,25.14
2022-07-31T07:06:28.922Z,25.15
2022-07-31T07:07:33.391Z,25.16
2022-07-31T07:08:36.178Z,25.21
2022-07-31T07:09:39.002Z,25.24
2022-07-31T07:10:42.161Z,25.26
2022-07-31T07:11:44.746Z,25.29
2022-07-31T07:12:47.492Z,25.32
2022-07-31T07:13:50.369Z,25.34
2022-07-31T07:14:53.045Z,25.41
2022-07-31T07:15:56.143Z,25.42
2022-07-31T07:17:04.033Z,25.46
2022-07-31T07:19:17.274Z,25.61
2022-07-31T07:21:31.630Z,25.67
2022-07-31T07:23:55.444Z,25.64
2022-07-31T07:24:59.052Z,25.67
2022-07-31T07:26:01.761Z,25.71
2022-07-31T07:27:04.658Z,25.71
2022-07-31T07:28:10.036Z,25.71
2022-07-31T07:29:12.355Z,25.74
2022-07-31T07:30:16.057Z,25.76
2022-07-31T07:31:18.643Z,25.77
2022-07-31T07:32:21.305Z,25.82
2022-07-31T07:33:41.682Z,25.84
2022-07-31T07:34:28.612Z,25.88
2022-07-31T07:35:34.123Z,25.88
2022-07-31T07:36:36.401Z,25.91
2022-07-31T07:37:39.893Z,25.93
2022-07-31T07:38:42.558Z,25.95
2022-07-31T07:39:46.974Z,25.98
2022-07-31T07:40:50.470Z,26.01
2022-07-31T07:41:53.304Z,26.05
2022-07-31T07:43:01.245Z,26.09
2022-07-31T07:44:01.134Z,26.08
2022-07-31T07:45:06.735Z,26.04
2022-07-31T07:46:09.520Z,26.04
2022-07-31T07:47:12.211Z,26.03
2022-07-31T07:48:15.028Z,26.07
2022-07-31T07:49:17.748Z,26.11
2022-07-31T07:50:21.546Z,26.12
2022-07-31T07:51:24.195Z,26.12
2022-07-31T07:52:28.886Z,26.08
2022-07-31T07:53:31.384Z,26.01
2022-07-31T07:54:34.076Z,26.05
2022-07-31T07:55:37.371Z,26.03
2022-07-31T07:56:40.740Z,26.04
2022-07-31T07:57:44.038Z,26.05
2022-07-31T07:58:46.717Z,26.07
2022-07-31T07:59:49.394Z,26.10
2022-07-31T08:00:52.440Z,26.15
2022-07-31T08:01:55.570Z,26.17
2022-07-31T08:03:47.724Z,26.19
2022-07-31T08:04:02.894Z,26.22
2022-07-31T08:05:06.591Z,26.22
2022-07-31T08:06:10.055Z,26.22
2022-07-31T08:07:12.885Z,26.26
2022-07-31T08:08:15.621Z,26.30
2022-07-31T08:09:18.189Z,26.31
2022-07-31T08:11:33.236Z,26.50
2022-07-31T08:12:36.220Z,26.40
2022-07-31T08:13:38.904Z,26.41
2022-07-31T08:14:43.535Z,26.45
2022-07-31T08:15:46.226Z,26.47
2022-07-31T08:16:49.013Z,26.47
2022-07-31T08:17:51.777Z,26.48
2022-07-31T08:18:54.478Z,26.49
2022-07-31T08:19:57.139Z,26.48
2022-07-31T08:20:59.957Z,26.45
2022-07-31T08:22:03.145Z,26.45
2022-07-31T08:23:06.042Z,26.48
2022-07-31T08:24:08.722Z,26.48
2022-07-31T08:25:15.083Z,26.52
2022-07-31T08:26:16.452Z,26.56
2022-07-31T08:27:19.131Z,26.59
2022-07-31T08:28:24.925Z,26.60
2022-07-31T08:29:28.947Z,26.58
2022-07-31T08:30:33.710Z,26.59
2022-07-31T08:31:36.390Z,26.58
2022-07-31T08:32:38.979Z,26.59
2022-07-31T08:33:41.654Z,26.61
2022-07-31T08:34:44.446Z,26.67
2022-07-31T08:35:50.535Z,26.73
2022-07-31T08:36:51.920Z,26.79
2022-07-31T08:38:03.740Z,26.82
2022-07-31T08:38:59.266Z,26.80
2022-07-31T08:40:01.979Z,26.85
2022-07-31T08:41:04.911Z,26.85
2022-07-31T08:42:08.663Z,26.83
2022-07-31T08:44:00.396Z,26.82
2022-07-31T08:44:16.874Z,26.82
2022-07-31T08:45:19.454Z,26.84
2022-07-31T08:46:23.063Z,26.86
2022-07-31T08:47:25.746Z,26.87
2022-07-31T08:48:28.832Z,26.91
2022-07-31T08:49:31.577Z,26.87
2022-07-31T08:50:36.806Z,26.82
2022-07-31T08:51:50.902Z,26.76
2022-07-31T08:52:44.311Z,26.73
2022-07-31T08:53:46.926Z,26.69
2022-07-31T08:54:51.926Z,26.69
2022-07-31T08:57:06.112Z,26.89
2022-07-31T08:58:10.351Z,26.84
2022-07-31T08:59:12.956Z,26.86
2022-07-31T09:00:17.702Z,26.88
2022-07-31T09:01:20.505Z,26.85
2022-07-31T09:02:23.593Z,26.83
2022-07-31T09:03:26.427Z,26.85
2022-07-31T09:04:29.394Z,26.89
2022-07-31T09:05:41.977Z,26.93
2022-07-31T09:06:39.675Z,26.97
2022-07-31T09:07:42.943Z,26.98
2022-07-31T09:08:45.638Z,27.02
2022-07-31T09:09:52.283Z,27.05
2022-07-31T09:11:05.956Z,27.03
2022-07-31T09:12:08.987Z,27.06
2022-07-31T09:13:16.145Z,27.09
2022-07-31T09:15:38.865Z,27.28
2022-07-31T09:16:47.838Z,27.13
2022-07-31T09:17:53.671Z,27.10
2022-07-31T09:19:03.830Z,27.11
2022-07-31T09:20:12.635Z,27.10
2022-07-31T09:21:15.351Z,27.06
2022-07-31T09:22:21.898Z,27.08
2022-07-31T09:23:25.236Z,27.08
2022-07-31T09:24:29.431Z,27.11
2022-07-31T09:25:32.127Z,27.12
2022-07-31T09:26:37.108Z,27.16
2022-07-31T09:27:39.798Z,27.20
2022-07-31T09:28:46.361Z,27.20
2022-07-31T09:29:49.234Z,27.22
2022-07-31T09:30:56.697Z,27.24
2022-07-31T09:32:12.773Z,27.23
2022-07-31T09:33:16.342Z,27.20
2022-07-31T09:34:26.487Z,27.19
2022-07-31T09:35:31.114Z,27.22
2022-07-31T09:37:46.359Z,27.42
2022-07-31T09:38:49.056Z,27.37
2022-07-31T09:39:52.935Z,27.40
2022-07-31T09:40:57.781Z,27.42
2022-07-31T09:42:16.396Z,27.43
2022-07-31T09:43:18.062Z,27.43
2022-07-31T09:44:25.373Z,27.41
2022-07-31T09:45:26.364Z,27.44
2022-07-31T09:46:43.442Z,27.46
2022-07-31T09:47:46.377Z,27.50
2022-07-31T09:48:56.624Z,27.53
2022-07-31T09:51:12.035Z,27.61
2022-07-31T09:52:18.347Z,27.49
2022-07-31T09:53:21.047Z,27.52
2022-07-31T09:54:24.826Z,27.57
2022-07-31T09:55:27.539Z,27.62
2022-07-31T09:56:32.928Z,27.66
2022-07-31T09:57:35.551Z,27.66
2022-07-31T09:58:38.781Z,27.64
2022-07-31T09:59:41.454Z,27.62
2022-07-31T10:00:46.150Z,27.62
2022-07-31T10:01:49.345Z,27.61
2022-07-31T10:02:55.634Z,27.63
2022-07-31T10:03:59.674Z,27.65
2022-07-31T10:05:02.666Z,27.66
2022-07-31T10:06:06.412Z,27.68
2022-07-31T10:08:00.431Z,27.75
2022-07-31T10:09:04.008Z,27.61
2022-07-31T10:10:07.770Z,27.62
2022-07-31T10:11:16.467Z,27.66
2022-07-31T10:12:16.638Z,27.71
2022-07-31T10:13:19.735Z,27.70
2022-07-31T10:14:25.703Z,27.74
2022-07-31T10:15:28.470Z,27.77
2022-07-31T10:16:32.154Z,27.78
2022-07-31T10:17:36.439Z,27.76
2022-07-31T10:18:45.542Z,27.76
2022-07-31T10:19:48.271Z,27.78
2022-07-31T10:20:51.944Z,27.81
2022-07-31T10:21:56.703Z,27.86
2022-07-31T10:23:03.125Z,27.85
2022-07-31T10:24:06.106Z,27.86
2022-07-31T10:25:09.092Z,27.85
2022-07-31T10:26:13.415Z,27.86
2022-07-31T10:27:16.538Z,27.86
2022-07-31T10:28:19.506Z,27.90
2022-07-31T10:29:22.178Z,27.92
2022-07-31T10:30:28.026Z,27.95
2022-07-31T10:31:30.335Z,27.99
2022-07-31T10:32:33.127Z,28.03
2022-07-31T10:33:44.804Z,28.06
2022-07-31T10:34:40.299Z,28.06
2022-07-31T10:35:55.454Z,28.02
2022-07-31T10:37:00.517Z,28.00
2022-07-31T10:38:12.036Z,27.95
2022-07-31T10:39:37.074Z,27.91
2022-07-31T10:42:32.602Z,28.04
2022-07-31T10:43:47.663Z,27.95
2022-07-31T10:44:52.765Z,27.92
2022-07-31T10:45:55.474Z,27.89
2022-07-31T10:46:58.692Z,27.86
2022-07-31T10:48:01.368Z,27.87
2022-07-31T10:49:08.733Z,27.91
2022-07-31T10:50:13.642Z,27.93
2022-07-31T10:51:16.368Z,27.97
2022-07-31T10:52:32.223Z,27.95
2022-07-31T10:53:50.998Z,27.95
2022-07-31T10:54:41.772Z,27.92
2022-07-31T10:55:44.489Z,27.89
2022-07-31T10:56:47.281Z,27.82
2022-07-31T10:57:56.162Z,27.75
2022-07-31T11:00:13.986Z,27.77
2022-07-31T11:01:17.585Z,27.67
2022-07-31T11:03:42.396Z,27.86
2022-07-31T11:04:45.013Z,27.81
2022-07-31T11:06:01.500Z,27.84
2022-07-31T11:08:15.006Z,27.94
2022-07-31T11:09:24.573Z,27.82
2022-07-31T11:10:29.186Z,27.83
2022-07-31T11:11:32.966Z,27.83
2022-07-31T11:12:35.702Z,27.89
2022-07-31T11:13:51.425Z,27.93
2022-07-31T11:14:54.137Z,27.97
2022-07-31T11:16:06.051Z,27.95
2022-07-31T11:17:08.846Z,27.92
2022-07-31T11:18:24.903Z,27.93
2022-07-31T11:19:20.810Z,27.94
2022-07-31T11:20:25.899Z,27.96
2022-07-31T11:21:39.976Z,27.97
2022-07-31T11:22:40.992Z,27.92
2022-07-31T11:23:56.052Z,27.89
2022-07-31T11:24:54.647Z,27.90
2022-07-31T11:26:02.093Z,27.92
2022-07-31T11:27:05.385Z,27.96
2022-07-31T11:28:16.685Z,28.00
2022-07-31T11:30:01.157Z,28.02
2022-07-31T11:30:33.427Z,28.07
2022-07-31T11:31:36.210Z,28.11
2022-07-31T11:32:38.947Z,28.12
2022-07-31T11:33:43.256Z,28.14
2022-07-31T11:36:13.015Z,28.30
2022-07-31T11:38:29.100Z,28.38
2022-07-31T11:41:46.490Z,28.33
2022-07-31T11:43:00.010Z,28.36
2022-07-31T11:43:55.027Z,28.34
2022-07-31T11:45:08.348Z,28.31
2022-07-31T11:46:09.835Z,28.26
2022-07-31T11:48:09.930Z,28.24
2022-07-31T11:48:19.724Z,28.26
2022-07-31T11:49:39.131Z,28.26
2022-07-31T11:50:28.689Z,28.24
2022-07-31T11:51:31.368Z,28.26
2022-07-31T11:52:37.088Z,28.30
2022-07-31T11:53:39.317Z,28.33
2022-07-31T11:54:42.026Z,28.36
2022-07-31T11:55:55.446Z,28.39
2022-07-31T11:59:45.860Z,28.48
2022-07-31T12:00:26.252Z,28.54
2022-07-31T12:01:27.754Z,28.56
2022-07-31T12:02:30.491Z,28.60
2022-07-31T12:03:35.451Z,28.64
2022-07-31T12:04:38.992Z,28.63
2022-07-31T12:05:48.747Z,28.62
2022-07-31T12:06:56.119Z,28.57
2022-07-31T12:07:58.978Z,28.63
2022-07-31T12:09:03.701Z,28.63
2022-07-31T12:11:19.998Z,28.85
2022-07-31T12:12:22.706Z,28.82
2022-07-31T12:13:28.012Z,28.88
2022-07-31T12:14:38.045Z,28.93
2022-07-31T12:15:40.776Z,28.95
2022-07-31T12:16:43.534Z,28.94
2022-07-31T12:17:46.973Z,28.93
2022-07-31T12:18:52.022Z,28.95
2022-07-31T12:21:08.112Z,29.07
2022-07-31T12:23:41.774Z,29.14
2022-07-31T12:24:45.020Z,29.06
2022-07-31T12:25:50.391Z,29.10
2022-07-31T12:26:54.902Z,29.14
2022-07-31T12:27:57.612Z,29.15
2022-07-31T12:29:11.329Z,29.18
2022-07-31T12:30:17.547Z,29.17
2022-07-31T12:31:22.505Z,29.14
2022-07-31T12:32:27.619Z,29.07
2022-07-31T12:35:03.536Z,29.16
2022-07-31T12:36:14.614Z,29.07
2022-07-31T12:37:18.745Z,29.04
2022-07-31T12:38:48.511Z,29.03
2022-07-31T12:40:46.908Z,29.05
2022-07-31T12:41:51.577Z,28.93
2022-07-31T12:42:56.202Z,28.91
2022-07-31T12:44:22.414Z,28.90
2022-07-31T12:45:30.633Z,28.91
2022-07-31T12:46:36.372Z,28.94
2022-07-31T12:47:41.238Z,28.93
2022-07-31T12:48:46.361Z,28.87
2022-07-31T12:49:50.447Z,28.87
2022-07-31T12:50:55.665Z,28.82
2022-07-31T12:51:59.630Z,28.82
2022-07-31T12:53:03.697Z,28.80
2022-07-31T12:54:06.585Z,28.80
2022-07-31T12:55:09.387Z,28.82
2022-07-31T12:56:13.926Z,28.82
2022-07-31T12:57:16.595Z,28.79
2022-07-31T12:58:19.265Z,28.77
2022-07-31T12:59:21.948Z,28.77
2022-07-31T13:00:26.244Z,28.79
2022-07-31T13:01:29.349Z,28.79
2022-07-31T13:02:32.278Z,28.79
2022-07-31T13:03:39.035Z,28.81
2022-07-31T13:04:39.800Z,28.85
2022-07-31T13:05:42.622Z,28.91
2022-07-31T13:06:45.874Z,28.93
2022-07-31T13:07:48.855Z,28.97
2022-07-31T13:08:51.638Z,29.00
2022-07-31T13:10:20.900Z,29.03
2022-07-31T13:10:59.004Z,29.02
2022-07-31T13:12:03.622Z,28.99
2022-07-31T13:13:06.318Z,28.97
2022-07-31T13:14:08.983Z,28.97
2022-07-31T13:15:11.657Z,28.97
2022-07-31T13:16:15.523Z,28.97
2022-07-31T13:17:18.605Z,29.01
2022-07-31T13:18:22.247Z,29.03
2022-07-31T13:19:25.450Z,29.03
2022-07-31T13:20:30.350Z,29.02
2022-07-31T13:21:42.494Z,29.04
2022-07-31T13:22:39.046Z,29.00
2022-07-31T13:23:41.947Z,28.93
2022-07-31T13:24:44.615Z,28.89
2022-07-31T13:25:47.389Z,28.85
2022-07-31T13:26:50.169Z,28.85
2022-07-31T13:27:52.982Z,28.91
2022-07-31T13:28:55.694Z,28.99
2022-07-31T13:29:58.469Z,29.12
2022-07-31T13:31:01.724Z,29.30
2022-07-31T13:32:05.206Z,29.52
2022-07-31T13:33:07.905Z,29.76
2022-07-31T13:34:10.797Z,29.97
2022-07-31T13:36:24.270Z,30.55
2022-07-31T13:38:37.760Z,30.86
2022-07-31T13:41:02.456Z,30.94
2022-07-31T13:42:05.382Z,31.03
2022-07-31T13:43:08.081Z,31.08
2022-07-31T13:44:10.844Z,31.11
2022-07-31T13:45:13.611Z,31.18
2022-07-31T13:46:18.127Z,31.26
2022-07-31T13:47:21.030Z,31.34
2022-07-31T13:48:23.721Z,31.36
2022-07-31T13:49:26.458Z,31.41
2022-07-31T13:50:31.072Z,31.39
2022-07-31T13:51:34.164Z,31.39
2022-07-31T13:52:37.058Z,31.35
2022-07-31T13:53:39.960Z,31.37
2022-07-31T13:54:42.632Z,31.38
2022-07-31T13:55:49.962Z,31.42
2022-07-31T13:56:50.296Z,31.45
2022-07-31T13:57:53.329Z,31.51
2022-07-31T13:58:57.859Z,31.56
2022-07-31T14:00:00.542Z,31.61
2022-07-31T14:01:04.709Z,31.68
2022-07-31T14:02:07.871Z,31.68
2022-07-31T14:03:10.754Z,31.71
2022-07-31T14:04:19.188Z,31.73
2022-07-31T14:05:18.466Z,31.66
2022-07-31T14:06:23.825Z,31.69
2022-07-31T14:07:45.020Z,31.74
2022-07-31T14:08:49.617Z,31.73
2022-07-31T14:09:35.843Z,31.81
2022-07-31T14:11:49.452Z,32.04
2022-07-31T14:12:53.181Z,31.97
2022-07-31T14:14:01.828Z,32.02
2022-07-31T14:15:06.169Z,31.99
2022-07-31T14:16:09.210Z,32.01
2022-07-31T14:17:11.779Z,32.08
2022-07-31T14:18:14.894Z,32.19
2022-07-31T14:19:17.745Z,32.06
2022-07-31T14:20:21.941Z,31.92
2022-07-31T14:21:25.866Z,31.84
2022-07-31T14:22:29.196Z,31.82
2022-07-31T14:23:34.413Z,31.89
2022-07-31T14:24:36.495Z,31.96
2022-07-31T14:25:39.414Z,32.00
2022-07-31T14:26:42.849Z,31.97
2022-07-31T14:27:45.560Z,32.03
2022-07-31T14:28:48.237Z,32.06
2022-07-31T14:29:50.921Z,32.06
2022-07-31T14:30:54.005Z,32.02
2022-07-31T14:31:56.675Z,31.99
2022-07-31T14:33:00.271Z,31.95
2022-07-31T14:34:02.957Z,31.95
2022-07-31T14:35:08.574Z,31.93
2022-07-31T14:36:13.511Z,31.91
2022-07-31T14:37:16.389Z,31.93
2022-07-31T14:38:27.061Z,31.93
2022-07-31T14:39:24.023Z,31.74
2022-07-31T14:40:27.319Z,31.70
2022-07-31T14:41:30.819Z,31.56
2022-07-31T14:42:33.988Z,31.33